createdAt,value
2019-03-13T00:00:56.414Z,11.30
2019-03-13T00:02:02.588Z,11.30
2019-03-13T00:03:07.803Z,11.30
2019-03-13T00:04:12.253Z,11.20
2019-03-13T00:05:16.799Z,11.20
2019-03-13T00:06:21.443Z,11.20
2019-03-13T00:07:25.979Z,11.20
2019-03-13T00:08:30.442Z,11.20
2019-03-13T00:09:34.916Z,11.20
2019-03-13T00:10:39.469Z,11.10
2019-03-13T00:11:43.952Z,11.10
2019-03-13T00:12:48.434Z,11.10
2019-03-13T00:13:52.993Z,11.10
2019-03-13T00:14:57.519Z,11.10
2019-03-13T00:16:01.978Z,11.10
2019-03-13T00:17:06.536Z,11.00
2019-03-13T00:18:11.024Z,11.00
2019-03-13T00:19:15.501Z,11.00
2019-03-13T00:20:19.961Z,11.00
2019-03-13T00:21:24.421Z,11.00
2019-03-13T00:22:28.933Z,11.00
2019-03-13T00:23:33.513Z,11.00
2019-03-13T00:24:38.053Z,11.00
2019-03-13T00:25:42.586Z,11.10
2019-03-13T00:26:47.077Z,11.00
2019-03-13T00:27:51.567Z,11.10
2019-03-13T00:28:56.081Z,11.10
2019-03-13T00:30:00.596Z,11.10
2019-03-13T00:31:05.377Z,11.10
2019-03-13T00:32:10.819Z,11.00
2019-03-13T00:33:15.285Z,11.00
2019-03-13T00:34:19.767Z,11.00
2019-03-13T00:35:24.242Z,11.00
2019-03-13T00:36:28.708Z,11.00
2019-03-13T00:37:33.169Z,11.00
2019-03-13T00:38:37.658Z,11.00
2019-03-13T00:39:42.137Z,11.00
2019-03-13T00:40:46.868Z,10.90
2019-03-13T00:41:51.355Z,10.90
2019-03-13T00:42:55.901Z,10.90
2019-03-13T00:44:00.364Z,10.90
2019-03-13T00:45:07.401Z,10.90
2019-03-13T00:46:11.986Z,10.80
2019-03-13T00:47:16.468Z,10.80
2019-03-13T00:48:20.940Z,10.80
2019-03-13T00:49:25.419Z,10.80
2019-03-13T00:50:33.871Z,10.80
2019-03-13T00:51:38.348Z,10.70
2019-03-13T00:52:42.810Z,10.70
2019-03-13T00:53:47.454Z,10.70
2019-03-13T00:54:52.011Z,10.70
2019-03-13T00:55:56.481Z,10.70
2019-03-13T00:57:00.953Z,10.70
2019-03-13T00:58:05.410Z,10.70
2019-03-13T00:59:09.874Z,10.70
2019-03-13T01:00:16.154Z,10.70
2019-03-13T01:01:34.342Z,10.70
2019-03-13T01:02:40.455Z,10.70
2019-03-13T01:03:46.655Z,10.60
2019-03-13T01:04:55.526Z,10.70
2019-03-13T01:06:01.666Z,10.60
2019-03-13T01:07:06.161Z,10.70
2019-03-13T01:08:10.715Z,10.70
2019-03-13T01:09:15.198Z,10.60
2019-03-13T01:10:19.665Z,10.60
2019-03-13T01:11:27.092Z,10.60
2019-03-13T01:12:30.406Z,10.60
2019-03-13T01:13:34.862Z,10.60
2019-03-13T01:14:39.336Z,10.60
2019-03-13T01:15:43.820Z,10.60
2019-03-13T01:16:48.310Z,10.60
2019-03-13T01:17:52.779Z,10.60
2019-03-13T01:18:57.251Z,10.60
2019-03-13T01:20:01.729Z,10.60
2019-03-13T01:21:06.266Z,10.60
2019-03-13T01:22:10.834Z,10.60
2019-03-13T01:23:15.318Z,10.60
2019-03-13T01:24:19.782Z,10.70
2019-03-13T01:25:24.255Z,10.70
2019-03-13T01:26:28.738Z,10.70
2019-03-13T01:27:33.207Z,10.80
2019-03-13T01:28:37.673Z,10.90
2019-03-13T01:29:42.151Z,10.90
2019-03-13T01:30:54.226Z,11.00
2019-03-13T01:32:00.347Z,11.10
2019-03-13T01:33:06.456Z,11.20
2019-03-13T01:34:24.473Z,11.30
2019-03-13T01:35:39.517Z,11.40
2019-03-13T01:36:44.004Z,11.50
2019-03-13T01:37:48.561Z,11.50
2019-03-13T01:38:53.079Z,11.60
2019-03-13T01:39:57.557Z,11.60
2019-03-13T01:41:02.099Z,11.70
2019-03-13T01:42:06.592Z,11.80
2019-03-13T01:43:11.157Z,11.90
2019-03-13T01:44:15.620Z,12.00
2019-03-13T01:45:20.313Z,12.00
2019-03-13T01:46:24.776Z,12.10
2019-03-13T01:47:29.257Z,12.20
2019-03-13T01:48:33.740Z,12.30
2019-03-13T01:49:38.219Z,12.30
2019-03-13T01:50:42.693Z,12.40
2019-03-13T01:51:47.160Z,12.50
2019-03-13T01:52:51.642Z,12.50
2019-03-13T01:53:56.119Z,12.60
2019-03-13T01:55:00.602Z,12.60
2019-03-13T01:56:05.073Z,12.70
2019-03-13T01:57:09.629Z,12.80
2019-03-13T01:58:14.135Z,12.80
2019-03-13T01:59:18.628Z,12.90
2019-03-13T02:00:23.097Z,12.90
2019-03-13T02:01:27.567Z,13.00
2019-03-13T02:02:32.031Z,13.00
2019-03-13T02:03:38.081Z,13.00
2019-03-13T02:04:45.398Z,13.10
2019-03-13T02:05:49.941Z,13.10
2019-03-13T02:06:54.422Z,13.10
2019-03-13T02:07:58.895Z,13.20
2019-03-13T02:09:04.656Z,13.20
2019-03-13T02:10:10.980Z,13.20
2019-03-13T02:11:15.538Z,13.20
2019-03-13T02:12:20.106Z,13.20
2019-03-13T02:13:24.551Z,13.20
2019-03-13T02:14:29.024Z,13.20
2019-03-13T02:15:33.635Z,13.20
2019-03-13T02:16:38.148Z,13.20
2019-03-13T02:17:42.613Z,13.20
2019-03-13T02:18:47.097Z,13.20
2019-03-13T02:19:51.567Z,13.20
2019-03-13T02:20:56.128Z,13.20
2019-03-13T02:22:00.610Z,13.40
2019-03-13T02:23:05.370Z,13.20
2019-03-13T02:24:09.866Z,13.20
2019-03-13T02:25:16.791Z,13.30
2019-03-13T02:26:21.271Z,13.20
2019-03-13T02:27:25.752Z,13.20
2019-03-13T02:28:30.234Z,13.20
2019-03-13T02:29:34.717Z,13.20
2019-03-13T02:30:39.184Z,13.20
2019-03-13T02:31:43.690Z,13.20
2019-03-13T02:32:48.164Z,13.20
2019-03-13T02:33:52.678Z,13.20
2019-03-13T02:34:57.158Z,13.20
2019-03-13T02:36:01.632Z,13.10
2019-03-13T02:37:06.104Z,13.10
2019-03-13T02:38:10.586Z,13.10
2019-03-13T02:39:15.070Z,13.10
2019-03-13T02:40:19.608Z,13.10
2019-03-13T02:41:24.114Z,13.10
2019-03-13T02:42:28.659Z,13.10
2019-03-13T02:43:33.152Z,13.10
2019-03-13T02:44:37.699Z,13.10
2019-03-13T02:45:42.177Z,13.00
2019-03-13T02:46:46.635Z,13.00
2019-03-13T02:47:51.123Z,13.00
2019-03-13T02:48:55.992Z,13.00
2019-03-13T02:50:00.501Z,13.00
2019-03-13T02:51:05.017Z,13.00
2019-03-13T02:52:09.487Z,13.00
2019-03-13T02:53:13.960Z,12.90
2019-03-13T02:54:18.441Z,12.90
2019-03-13T02:55:22.929Z,12.90
2019-03-13T02:56:27.429Z,12.90
2019-03-13T02:57:31.962Z,12.80
2019-03-13T02:58:36.453Z,12.80
2019-03-13T02:59:40.936Z,12.80
2019-03-13T03:01:03.073Z,12.80
2019-03-13T03:02:09.178Z,12.70
2019-03-13T03:03:27.429Z,12.70
2019-03-13T03:04:31.907Z,12.70
2019-03-13T03:05:36.392Z,12.60
2019-03-13T03:06:40.856Z,12.60
2019-03-13T03:07:46.185Z,12.50
2019-03-13T03:08:51.004Z,12.50
2019-03-13T03:09:55.484Z,12.40
2019-03-13T03:11:01.767Z,12.40
2019-03-13T03:12:06.318Z,12.40
2019-03-13T03:13:10.817Z,12.30
2019-03-13T03:14:15.298Z,12.30
2019-03-13T03:15:19.824Z,12.20
2019-03-13T03:16:24.975Z,12.10
2019-03-13T03:17:29.467Z,12.10
2019-03-13T03:18:33.991Z,12.00
2019-03-13T03:19:38.474Z,12.00
2019-03-13T03:20:43.033Z,11.90
2019-03-13T03:21:47.504Z,11.80
2019-03-13T03:22:51.991Z,11.70
2019-03-13T03:23:56.512Z,11.70
2019-03-13T03:25:01.055Z,11.60
2019-03-13T03:26:05.578Z,11.60
2019-03-13T03:27:10.038Z,11.50
2019-03-13T03:28:14.525Z,11.40
2019-03-13T03:29:19.016Z,11.30
2019-03-13T03:30:25.084Z,11.30
2019-03-13T03:31:29.577Z,11.20
2019-03-13T03:32:34.282Z,11.10
2019-03-13T03:33:38.833Z,11.10
2019-03-13T03:34:43.333Z,11.00
2019-03-13T03:35:47.839Z,10.90
2019-03-13T03:36:52.308Z,10.90
2019-03-13T03:37:56.771Z,10.90
2019-03-13T03:39:01.242Z,10.80
2019-03-13T03:40:09.117Z,10.80
2019-03-13T03:41:13.596Z,10.70
2019-03-13T03:42:18.065Z,10.70
2019-03-13T03:43:38.733Z,10.70
2019-03-13T03:44:28.715Z,10.70
2019-03-13T03:45:33.176Z,10.60
2019-03-13T03:46:37.665Z,10.60
2019-03-13T03:47:42.137Z,10.60
2019-03-13T03:48:46.656Z,10.50
2019-03-13T03:49:51.125Z,10.50
2019-03-13T03:50:55.686Z,10.50
2019-03-13T03:52:00.242Z,10.40
2019-03-13T03:53:04.771Z,10.40
2019-03-13T03:54:09.257Z,10.40
2019-03-13T03:55:15.463Z,10.40
2019-03-13T03:56:19.937Z,10.30
2019-03-13T03:57:24.424Z,10.30
2019-03-13T03:58:30.014Z,10.30
2019-03-13T03:59:34.779Z,10.30
2019-03-13T04:00:39.485Z,10.30
2019-03-13T04:01:43.944Z,10.30
2019-03-13T04:02:48.509Z,10.30
2019-03-13T04:03:53.045Z,10.30
2019-03-13T04:04:58.284Z,10.20
2019-03-13T04:06:02.741Z,10.20
2019-03-13T04:07:07.200Z,10.20
2019-03-13T04:08:11.696Z,10.20
2019-03-13T04:09:16.259Z,10.20
2019-03-13T04:10:20.806Z,10.20
2019-03-13T04:11:25.267Z,10.20
2019-03-13T04:12:29.757Z,10.20
2019-03-13T04:13:34.263Z,10.20
2019-03-13T04:14:38.800Z,10.20
2019-03-13T04:15:43.292Z,10.10
2019-03-13T04:16:47.816Z,10.10
2019-03-13T04:17:52.313Z,10.10
2019-03-13T04:18:56.787Z,10.10
2019-03-13T04:20:01.266Z,10.10
2019-03-13T04:21:05.850Z,10.10
2019-03-13T04:22:10.626Z,10.10
2019-03-13T04:23:15.131Z,10.10
2019-03-13T04:24:19.668Z,10.10
2019-03-13T04:25:29.884Z,10.10
2019-03-13T04:26:34.558Z,10.00
2019-03-13T04:27:40.227Z,10.00
2019-03-13T04:28:44.719Z,10.00
2019-03-13T04:29:49.273Z,10.00
2019-03-13T04:30:53.849Z,10.00
2019-03-13T04:31:58.378Z,10.00
2019-03-13T04:33:02.929Z,10.00
2019-03-13T04:34:07.410Z,10.00
2019-03-13T04:35:11.968Z,10.00
2019-03-13T04:36:16.518Z,10.00
2019-03-13T04:37:21.050Z,10.00
2019-03-13T04:38:25.518Z,10.00
2019-03-13T04:39:30.001Z,10.00
2019-03-13T04:40:34.634Z,10.00
2019-03-13T04:41:39.110Z,10.10
2019-03-13T04:42:43.698Z,10.10
2019-03-13T04:43:48.248Z,10.10
2019-03-13T04:44:52.730Z,10.10
2019-03-13T04:45:57.192Z,10.10
2019-03-13T04:47:01.673Z,10.10
2019-03-13T04:48:06.157Z,10.10
2019-03-13T04:49:10.680Z,10.10
2019-03-13T04:50:15.683Z,10.10
2019-03-13T04:51:20.174Z,10.10
2019-03-13T04:52:24.646Z,10.10
2019-03-13T04:53:29.398Z,10.10
2019-03-13T04:54:33.900Z,10.10
2019-03-13T04:55:38.399Z,10.10
2019-03-13T04:56:42.858Z,10.10
2019-03-13T04:57:47.341Z,10.10
2019-03-13T04:58:51.820Z,10.10
2019-03-13T04:59:56.294Z,10.10
2019-03-13T05:01:00.777Z,10.10
2019-03-13T05:02:05.290Z,10.10
2019-03-13T05:03:09.752Z,10.10
2019-03-13T05:04:17.057Z,10.10
2019-03-13T05:05:44.573Z,10.10
2019-03-13T05:06:49.351Z,10.10
2019-03-13T05:07:53.836Z,10.10
2019-03-13T05:08:59.439Z,10.10
2019-03-13T05:10:06.428Z,10.10
2019-03-13T05:11:10.898Z,10.10
2019-03-13T05:12:15.367Z,10.10
2019-03-13T05:13:19.860Z,10.10
2019-03-13T05:14:24.310Z,10.10
2019-03-13T05:15:28.800Z,10.00
2019-03-13T05:16:33.286Z,10.00
2019-03-13T05:17:37.831Z,10.00
2019-03-13T05:18:42.319Z,10.00
2019-03-13T05:19:46.771Z,10.00
2019-03-13T05:20:51.275Z,9.90
2019-03-13T05:21:55.819Z,9.90
2019-03-13T05:23:00.289Z,9.90
2019-03-13T05:24:04.776Z,9.90
2019-03-13T05:25:09.308Z,9.90
2019-03-13T05:26:13.771Z,9.80
2019-03-13T05:27:18.260Z,9.80
2019-03-13T05:28:22.710Z,9.80
2019-03-13T05:29:27.217Z,9.80
2019-03-13T05:30:31.686Z,9.70
2019-03-13T05:31:36.148Z,9.70
2019-03-13T05:32:40.627Z,9.70
2019-03-13T05:33:45.087Z,9.70
2019-03-13T05:34:49.578Z,9.70
2019-03-13T05:35:54.045Z,9.60
2019-03-13T05:36:58.505Z,9.60
2019-03-13T05:38:02.998Z,9.60
2019-03-13T05:39:08.202Z,9.60
2019-03-13T05:40:12.804Z,9.60
2019-03-13T05:41:17.263Z,9.60
2019-03-13T05:42:21.747Z,9.60
2019-03-13T05:43:26.286Z,9.60
2019-03-13T05:44:30.758Z,9.50
2019-03-13T05:45:35.318Z,9.50
2019-03-13T05:46:39.781Z,9.50
2019-03-13T05:47:44.267Z,9.50
2019-03-13T05:48:48.732Z,9.50
2019-03-13T05:49:53.225Z,9.50
2019-03-13T05:50:57.679Z,9.50
2019-03-13T05:52:02.147Z,9.50
2019-03-13T05:53:06.648Z,9.50
2019-03-13T05:54:11.119Z,9.50
2019-03-13T05:55:15.654Z,9.50
2019-03-13T05:56:20.146Z,9.50
2019-03-13T05:57:24.625Z,9.50
2019-03-13T05:58:29.109Z,9.40
2019-03-13T05:59:33.583Z,9.40
2019-03-13T06:00:38.058Z,9.40
2019-03-13T06:01:42.522Z,9.40
2019-03-13T06:02:47.996Z,9.40
2019-03-13T06:03:58.089Z,9.40
2019-03-13T06:05:02.559Z,9.40
2019-03-13T06:06:07.048Z,9.40
2019-03-13T06:07:11.508Z,9.40
2019-03-13T06:08:18.410Z,9.40
2019-03-13T06:09:22.471Z,9.40
2019-03-13T06:10:28.300Z,9.40
2019-03-13T06:11:32.773Z,9.40
2019-03-13T06:12:37.286Z,9.40
2019-03-13T06:13:41.768Z,9.40
2019-03-13T06:14:46.221Z,9.40
2019-03-13T06:15:50.681Z,9.40
2019-03-13T06:16:55.173Z,9.40
2019-03-13T06:17:59.720Z,9.40
2019-03-13T06:19:04.178Z,9.40
2019-03-13T06:20:11.703Z,9.40
2019-03-13T06:21:16.168Z,9.40
2019-03-13T06:22:20.638Z,9.40
2019-03-13T06:23:25.098Z,9.40
2019-03-13T06:24:29.546Z,9.40
2019-03-13T06:25:34.122Z,9.40
2019-03-13T06:26:38.668Z,9.40
2019-03-13T06:27:46.103Z,9.40
2019-03-13T06:28:49.382Z,9.40
2019-03-13T06:29:53.949Z,9.40
2019-03-13T06:30:58.578Z,9.40
2019-03-13T06:32:03.116Z,9.30
2019-03-13T06:33:07.605Z,9.30
2019-03-13T06:34:12.065Z,9.30
2019-03-13T06:35:16.611Z,9.30
2019-03-13T06:36:21.117Z,9.20
2019-03-13T06:37:25.595Z,9.20
2019-03-13T06:38:30.052Z,9.10
2019-03-13T06:39:34.519Z,9.10
2019-03-13T06:40:38.988Z,9.00
2019-03-13T06:41:43.454Z,9.00
2019-03-13T06:42:48.015Z,9.00
2019-03-13T06:43:52.538Z,8.90
2019-03-13T06:44:57.003Z,8.90
2019-03-13T06:46:01.745Z,8.90
2019-03-13T06:47:06.228Z,8.80
2019-03-13T06:48:10.720Z,8.80
2019-03-13T06:49:15.210Z,8.80
2019-03-13T06:50:24.158Z,8.70
2019-03-13T06:51:28.716Z,8.70
2019-03-13T06:52:33.169Z,8.70
2019-03-13T06:53:37.642Z,8.60
2019-03-13T06:54:42.123Z,8.60
2019-03-13T06:55:46.593Z,8.60
2019-03-13T06:56:51.075Z,8.50
2019-03-13T06:57:55.552Z,8.50
2019-03-13T06:59:01.652Z,8.50
2019-03-13T07:00:30.880Z,8.40
2019-03-13T07:01:39.817Z,8.40
2019-03-13T07:02:51.425Z,8.40
2019-03-13T07:04:00.338Z,8.30
2019-03-13T07:05:24.687Z,8.30
2019-03-13T07:06:46.019Z,8.30
2019-03-13T07:07:52.177Z,8.30
2019-03-13T07:09:07.028Z,8.20
2019-03-13T07:10:16.174Z,8.20
2019-03-13T07:11:22.289Z,8.20
2019-03-13T07:12:33.904Z,8.20
2019-03-13T07:13:45.450Z,8.20
2019-03-13T07:14:57.601Z,8.10
2019-03-13T07:16:06.645Z,8.20
2019-03-13T07:17:12.766Z,8.10
2019-03-13T07:18:29.026Z,8.10
2019-03-13T07:19:51.134Z,8.10
2019-03-13T07:21:13.526Z,8.10
2019-03-13T07:22:22.329Z,8.10
2019-03-13T07:23:34.323Z,8.10
2019-03-13T07:24:56.407Z,8.10
2019-03-13T07:26:05.206Z,8.10
2019-03-13T07:27:19.738Z,8.10
2019-03-13T07:28:25.850Z,8.10
2019-03-13T07:29:40.770Z,8.10
2019-03-13T07:30:52.973Z,8.10
2019-03-13T07:32:01.753Z,8.10
2019-03-13T07:33:07.847Z,8.10
2019-03-13T07:34:33.488Z,8.10
2019-03-13T07:35:39.591Z,8.10
2019-03-13T07:36:45.707Z,8.10
2019-03-13T07:37:51.818Z,8.10
2019-03-13T07:39:03.880Z,8.20
2019-03-13T07:40:29.349Z,8.20
2019-03-13T07:41:44.531Z,8.20
2019-03-13T07:42:50.642Z,8.30
2019-03-13T07:43:56.756Z,8.30
2019-03-13T07:45:02.882Z,8.30
2019-03-13T07:46:08.983Z,8.40
2019-03-13T07:47:33.276Z,8.40
2019-03-13T07:48:48.342Z,8.40
2019-03-13T07:49:57.270Z,8.50
2019-03-13T07:51:19.625Z,8.50
2019-03-13T07:52:28.303Z,8.50
2019-03-13T07:53:34.435Z,8.60
2019-03-13T07:54:40.536Z,8.60
2019-03-13T07:55:46.657Z,8.60
2019-03-13T07:56:52.764Z,8.60
2019-03-13T07:57:58.880Z,8.60
2019-03-13T07:59:10.534Z,8.60
2019-03-13T08:00:32.024Z,8.60
2019-03-13T08:01:38.140Z,8.70
2019-03-13T08:03:00.380Z,8.70
2019-03-13T08:04:06.792Z,8.70
2019-03-13T08:05:12.984Z,8.70
2019-03-13T08:06:25.033Z,8.70
2019-03-13T08:07:31.220Z,8.70
2019-03-13T08:08:55.535Z,8.70
2019-03-13T08:10:07.438Z,8.70
2019-03-13T08:11:22.490Z,8.70
2019-03-13T08:12:37.369Z,8.70
2019-03-13T08:13:52.672Z,8.70
2019-03-13T08:27:33.515Z,8.80
2019-03-13T08:28:51.723Z,8.90
2019-03-13T08:29:57.814Z,8.90
2019-03-13T08:31:09.820Z,9.00
2019-03-13T08:32:15.927Z,9.00
2019-03-13T08:33:22.050Z,9.10
2019-03-13T08:34:44.475Z,9.10
2019-03-13T08:36:06.917Z,9.20
2019-03-13T08:37:15.969Z,9.20
2019-03-13T08:38:22.153Z,9.30
2019-03-13T08:39:36.872Z,9.40
2019-03-13T08:40:59.133Z,9.40
2019-03-13T08:42:05.262Z,9.60
2019-03-13T08:43:17.382Z,9.70
2019-03-13T08:44:26.185Z,9.80
2019-03-13T08:45:47.145Z,10.00
2019-03-13T08:46:56.287Z,10.10
2019-03-13T08:48:08.121Z,10.30
2019-03-13T08:49:19.923Z,10.60
2019-03-13T08:50:26.036Z,10.70
2019-03-13T08:51:38.162Z,11.00
2019-03-13T09:06:53.765Z,13.00
2019-03-13T09:08:02.809Z,13.20
2019-03-13T09:09:25.284Z,13.30
2019-03-13T09:10:49.598Z,13.30
2019-03-13T09:11:55.720Z,13.40
2019-03-13T09:13:10.675Z,13.50
2019-03-13T09:14:16.956Z,13.70
2019-03-13T09:15:38.992Z,13.80
2019-03-13T09:16:57.140Z,13.90
2019-03-13T09:18:06.375Z,14.00
2019-03-13T09:19:17.941Z,14.10
2019-03-13T09:20:24.108Z,14.20
2019-03-13T09:21:38.691Z,14.30
2019-03-13T09:22:44.786Z,14.40
2019-03-13T09:23:53.580Z,14.50
2019-03-13T09:25:17.782Z,14.50
2019-03-13T09:26:29.705Z,14.60
2019-03-13T09:27:51.984Z,14.60
2019-03-13T09:28:58.100Z,14.70
2019-03-13T09:30:20.568Z,14.80
2019-03-13T09:31:26.693Z,14.90
2019-03-13T09:32:35.522Z,15.00
2019-03-13T09:33:50.480Z,15.10
2019-03-13T09:35:02.586Z,15.20
2019-03-13T09:36:14.636Z,15.30
2019-03-13T09:37:20.759Z,15.40
2019-03-13T09:38:29.547Z,15.50
2019-03-13T09:39:50.525Z,15.60
2019-03-13T09:41:02.690Z,15.70
2019-03-13T09:42:11.352Z,15.70
2019-03-13T09:43:23.306Z,15.80
2019-03-13T09:44:35.084Z,15.90
2019-03-13T09:45:47.167Z,16.00
2019-03-13T09:47:01.883Z,16.00
2019-03-13T09:48:08.072Z,16.10
2019-03-13T09:49:29.066Z,16.10
2019-03-13T09:50:35.310Z,16.10
2019-03-13T09:51:41.441Z,16.20
2019-03-13T09:53:05.384Z,16.20
2019-03-13T09:54:11.495Z,16.20
2019-03-13T09:55:26.574Z,16.30
2019-03-13T09:56:32.699Z,16.30
2019-03-13T09:57:41.808Z,16.40
2019-03-13T09:58:47.943Z,16.40
2019-03-13T09:59:54.060Z,16.40
2019-03-13T10:01:02.938Z,16.40
2019-03-13T10:02:09.118Z,16.40
2019-03-13T10:03:30.100Z,16.30
2019-03-13T10:04:39.181Z,16.30
2019-03-13T10:06:00.605Z,16.20
2019-03-13T10:07:09.514Z,16.20
2019-03-13T10:08:21.531Z,16.10
2019-03-13T10:09:27.669Z,16.00
2019-03-13T10:10:36.470Z,15.80
2019-03-13T10:11:42.636Z,15.70
2019-03-13T10:12:48.761Z,15.50
2019-03-13T10:14:00.389Z,15.40
2019-03-13T10:15:14.424Z,15.20
2019-03-13T10:16:20.602Z,15.00
2019-03-13T10:17:42.713Z,14.80
2019-03-13T10:19:00.712Z,14.60
2019-03-13T10:20:27.697Z,14.40
2019-03-13T10:21:36.649Z,14.20
2019-03-13T10:22:42.836Z,14.00
2019-03-13T10:23:49.014Z,13.90
2019-03-13T10:24:58.091Z,13.70
2019-03-13T10:26:07.204Z,13.60
2019-03-13T10:27:22.571Z,13.50
2019-03-13T10:28:34.370Z,13.40
2019-03-13T10:29:40.493Z,13.30
2019-03-13T10:30:52.406Z,13.20
2019-03-13T10:32:01.019Z,13.20
2019-03-13T10:33:23.182Z,13.20
2019-03-13T10:34:45.313Z,13.20
2019-03-13T10:35:51.454Z,13.30
2019-03-13T10:37:03.563Z,13.30
2019-03-13T10:38:27.593Z,13.40
2019-03-13T10:39:42.891Z,13.40
2019-03-13T10:40:55.146Z,13.50
2019-03-13T10:42:01.300Z,13.60
2019-03-13T10:43:07.427Z,13.70
2019-03-13T10:44:19.122Z,13.90
2019-03-13T10:45:31.227Z,14.00
2019-03-13T10:46:43.160Z,14.20
2019-03-13T10:47:49.330Z,14.40
2019-03-13T10:48:55.432Z,14.70
2019-03-13T10:50:01.613Z,14.80
2019-03-13T10:51:19.655Z,15.00
2019-03-13T10:52:28.231Z,15.10
2019-03-13T10:53:40.409Z,15.30
2019-03-13T10:54:52.167Z,15.40
2019-03-13T10:55:58.394Z,15.60
2019-03-13T10:57:13.203Z,15.70
2019-03-13T10:58:19.316Z,15.80
2019-03-13T10:59:28.143Z,16.00
2019-03-13T11:00:36.992Z,16.10
2019-03-13T11:02:01.313Z,16.20
2019-03-13T11:03:16.386Z,16.30
2019-03-13T11:04:22.499Z,16.40
2019-03-13T11:05:40.254Z,16.40
2019-03-13T11:06:55.157Z,16.40
2019-03-13T11:08:00.062Z,16.50
2019-03-13T11:09:20.052Z,16.50
2019-03-13T11:10:42.476Z,16.60
2019-03-13T11:11:48.684Z,16.60
2019-03-13T11:12:54.803Z,16.60
2019-03-13T11:14:17.251Z,16.50
2019-03-13T11:15:32.198Z,16.40
2019-03-13T11:16:38.321Z,16.30
2019-03-13T11:17:44.430Z,16.20
2019-03-13T11:18:50.541Z,16.10
2019-03-13T11:19:56.768Z,15.90
2019-03-13T11:21:02.870Z,15.80
2019-03-13T11:22:08.969Z,15.60
2019-03-13T11:23:15.079Z,15.40
2019-03-13T11:24:21.204Z,15.30
2019-03-13T11:25:30.276Z,15.10
2019-03-13T11:26:36.524Z,15.00
2019-03-13T11:27:57.271Z,14.90
2019-03-13T11:29:18.122Z,14.70
2019-03-13T11:30:24.228Z,14.60
2019-03-13T11:31:39.047Z,14.40
2019-03-13T11:32:45.157Z,14.30
2019-03-13T11:33:51.271Z,14.10
2019-03-13T11:35:06.227Z,14.00
2019-03-13T11:36:30.201Z,13.90
2019-03-13T11:37:38.795Z,13.70
2019-03-13T11:39:00.791Z,13.40
2019-03-13T11:40:10.068Z,13.20
2019-03-13T11:41:22.085Z,12.90
2019-03-13T11:42:45.917Z,12.60
2019-03-13T11:44:04.094Z,12.20
2019-03-13T11:45:17.764Z,11.90
2019-03-13T11:46:23.882Z,11.60
2019-03-13T11:47:44.690Z,11.40
2019-03-13T11:48:50.779Z,11.20
2019-03-13T11:50:02.514Z,11.10
2019-03-13T11:51:20.570Z,11.10
2019-03-13T11:52:26.669Z,11.10
2019-03-13T11:53:48.831Z,11.20
2019-03-13T11:55:10.939Z,11.30
2019-03-13T11:56:17.086Z,11.50
2019-03-13T11:57:38.118Z,11.70
2019-03-13T11:58:44.242Z,11.80
2019-03-13T11:59:53.003Z,12.00
2019-03-13T12:01:17.548Z,12.20
2019-03-13T12:02:35.713Z,12.20
2019-03-13T12:03:44.651Z,12.40
2019-03-13T12:04:50.829Z,12.40
2019-03-13T12:05:59.773Z,12.40
2019-03-13T12:07:08.512Z,12.40
2019-03-13T12:08:14.647Z,12.40
2019-03-13T12:09:20.742Z,12.40
2019-03-13T12:10:41.479Z,12.30
2019-03-13T12:11:56.579Z,12.20
2019-03-13T12:13:14.598Z,12.20
2019-03-13T12:14:20.704Z,12.20
2019-03-13T12:15:42.676Z,12.20
2019-03-13T12:17:03.644Z,12.30
2019-03-13T12:18:25.750Z,12.40
2019-03-13T12:19:49.488Z,12.60
2019-03-13T12:21:04.132Z,12.70
2019-03-13T12:22:15.894Z,12.90
2019-03-13T12:23:30.708Z,13.10
2019-03-13T12:24:36.824Z,13.20
2019-03-13T12:26:03.278Z,13.40
2019-03-13T12:27:08.748Z,13.60
2019-03-13T12:28:30.695Z,13.80
2019-03-13T12:29:39.586Z,14.00
2019-03-13T12:30:45.736Z,14.30
2019-03-13T12:32:08.155Z,14.50
2019-03-13T12:33:23.086Z,14.70
2019-03-13T12:34:45.572Z,14.90
2019-03-13T12:35:54.199Z,15.10
2019-03-13T12:37:03.115Z,15.20
2019-03-13T12:38:09.287Z,15.20
2019-03-13T12:39:31.291Z,15.30
2019-03-13T12:40:37.424Z,15.20
2019-03-13T12:41:52.246Z,15.20
2019-03-13T12:43:01.159Z,15.10
2019-03-13T12:44:07.259Z,15.10
2019-03-13T12:45:28.230Z,15.00
2019-03-13T12:46:34.387Z,14.90
2019-03-13T12:47:40.511Z,14.90
2019-03-13T12:48:52.567Z,14.80
2019-03-13T12:49:58.676Z,14.80
2019-03-13T12:51:16.976Z,14.80
2019-03-13T12:52:32.086Z,14.80
2019-03-13T12:53:40.932Z,14.90
2019-03-13T12:54:49.960Z,14.90
2019-03-13T12:55:58.768Z,15.00
2019-03-13T12:57:04.964Z,15.00
2019-03-13T12:58:11.084Z,15.00
2019-03-13T12:59:22.663Z,15.00
2019-03-13T13:00:34.672Z,15.00
2019-03-13T13:01:46.912Z,15.00
2019-03-13T13:02:54.828Z,15.10
2019-03-13T13:04:03.531Z,15.10
2019-03-13T13:05:13.322Z,15.10
2019-03-13T13:06:22.413Z,15.20
2019-03-13T13:07:34.453Z,15.20
2019-03-13T13:08:40.618Z,15.30
2019-03-13T13:10:01.844Z,15.40
2019-03-13T13:11:16.715Z,15.50
2019-03-13T13:12:25.812Z,15.60
2019-03-13T13:13:48.073Z,15.70
2019-03-13T13:14:56.890Z,15.80
2019-03-13T13:16:03.010Z,15.90
2019-03-13T13:17:11.885Z,16.00
2019-03-13T13:18:35.814Z,16.20
2019-03-13T13:19:40.376Z,16.20
2019-03-13T13:20:44.844Z,16.30
2019-03-13T13:21:49.315Z,16.40
2019-03-13T13:22:53.827Z,16.40
2019-03-13T13:23:58.299Z,16.50
2019-03-13T13:25:02.855Z,16.60
2019-03-13T13:26:07.523Z,16.60
2019-03-13T13:27:12.074Z,16.80
2019-03-13T13:28:16.554Z,16.80
2019-03-13T13:29:21.047Z,16.90
2019-03-13T13:30:25.561Z,16.90
2019-03-13T13:31:30.071Z,17.00
2019-03-13T13:32:34.594Z,17.00
2019-03-13T13:33:39.085Z,17.10
2019-03-13T13:34:43.601Z,17.10
2019-03-13T13:35:48.064Z,17.10
2019-03-13T13:36:52.737Z,17.20
2019-03-13T13:37:57.184Z,17.20
2019-03-13T13:39:01.651Z,17.20
2019-03-13T13:40:14.454Z,17.30
2019-03-13T13:41:18.980Z,17.30
2019-03-13T13:42:23.532Z,17.40
2019-03-13T13:43:28.025Z,17.40
2019-03-13T13:44:32.516Z,17.40
2019-03-13T13:45:39.453Z,17.40
2019-03-13T13:46:44.644Z,17.40
2019-03-13T13:47:49.285Z,17.40
2019-03-13T13:48:53.770Z,17.30
2019-03-13T13:49:59.978Z,17.30
2019-03-13T13:51:04.502Z,17.30
2019-03-13T13:52:09.011Z,17.30
2019-03-13T13:53:13.555Z,17.30
2019-03-13T13:54:18.040Z,17.30
2019-03-13T13:55:22.626Z,17.30
2019-03-13T13:56:27.259Z,17.30
2019-03-13T13:57:31.775Z,17.20
2019-03-13T13:58:36.319Z,17.20
2019-03-13T13:59:40.827Z,17.10
2019-03-13T14:00:45.298Z,17.00
2019-03-13T14:01:49.862Z,16.80
2019-03-13T14:02:54.328Z,16.70
2019-03-13T14:03:58.938Z,16.40
2019-03-13T14:05:03.997Z,16.20
2019-03-13T14:06:08.519Z,16.00
2019-03-13T14:07:13.082Z,15.80
2019-03-13T14:08:17.624Z,15.60
2019-03-13T14:09:22.206Z,15.40
2019-03-13T14:10:26.700Z,15.10
2019-03-13T14:11:31.186Z,15.00
2019-03-13T14:12:35.925Z,14.80
2019-03-13T14:13:40.400Z,14.60
2019-03-13T14:14:44.911Z,14.50
2019-03-13T14:15:49.377Z,14.30
2019-03-13T14:16:53.884Z,14.20
2019-03-13T14:18:00.272Z,13.90
2019-03-13T14:19:04.631Z,14.10
2019-03-13T14:20:10.844Z,14.00
2019-03-13T14:21:15.325Z,14.00
2019-03-13T14:22:19.881Z,13.90
2019-03-13T14:23:24.384Z,14.00
2019-03-13T14:24:28.969Z,13.90
2019-03-13T14:25:33.510Z,13.90
2019-03-13T14:26:38.073Z,13.90
2019-03-13T14:27:42.554Z,13.90
2019-03-13T14:28:47.028Z,13.90
2019-03-13T14:29:51.542Z,13.90
2019-03-13T14:30:56.094Z,13.90
2019-03-13T14:32:00.578Z,13.90
2019-03-13T14:33:05.154Z,13.90
2019-03-13T14:34:09.634Z,13.90
2019-03-13T14:35:14.242Z,14.00
2019-03-13T14:36:18.704Z,14.00
2019-03-13T14:37:23.186Z,14.00
2019-03-13T14:38:27.664Z,14.00
2019-03-13T14:39:32.140Z,14.00
2019-03-13T14:40:36.670Z,14.00
2019-03-13T14:41:41.225Z,14.00
2019-03-13T14:42:45.836Z,14.00
2019-03-13T14:43:50.346Z,14.00
2019-03-13T14:44:54.835Z,14.00
2019-03-13T14:45:59.315Z,14.00
2019-03-13T14:47:03.791Z,14.00
2019-03-13T14:48:08.258Z,14.00
2019-03-13T14:49:12.829Z,13.90
2019-03-13T14:50:18.777Z,13.90
2019-03-13T14:51:23.341Z,13.80
2019-03-13T14:52:27.874Z,13.70
2019-03-13T14:53:32.350Z,13.70
2019-03-13T14:54:36.824Z,13.50
2019-03-13T14:55:41.330Z,13.50
2019-03-13T14:56:45.821Z,13.40
2019-03-13T14:57:50.311Z,13.30
2019-03-13T14:58:54.830Z,13.20
2019-03-13T14:59:59.452Z,13.00
2019-03-13T15:01:04.090Z,12.90
2019-03-13T15:02:08.559Z,12.80
2019-03-13T15:03:13.036Z,12.60
2019-03-13T15:04:17.491Z,12.60
2019-03-13T15:05:22.050Z,12.40